createdAt,value
2019-02-20T00:00:15.001Z,1003.0
2019-02-20T00:03:15.856Z,1003.0
2019-02-20T00:06:15.520Z,1003.0
2019-02-20T00:09:15.360Z,1003.0
2019-02-20T00:12:14.850Z,1003.1
2019-02-20T00:15:15.343Z,1003.1
2019-02-20T00:18:20.104Z,1003.1
2019-02-20T00:21:15.635Z,1003.1
2019-02-20T00:24:15.006Z,1003.1
2019-02-20T00:27:15.557Z,1003.0
2019-02-20T00:30:15.028Z,1003.0
2019-02-20T00:33:15.467Z,1003.1
2019-02-20T00:36:15.039Z,1003.1
2019-02-20T00:39:15.523Z,1003.1
2019-02-20T00:42:15.009Z,1003.1
2019-02-20T00:45:15.638Z,1003.2
2019-02-20T00:48:15.284Z,1003.2
2019-02-20T00:51:14.921Z,1003.2
2019-02-20T00:54:20.085Z,1003.2
2019-02-20T00:57:15.799Z,1003.3
2019-02-20T01:00:15.513Z,1003.3
2019-02-20T01:03:14.884Z,1003.2
2019-02-20T01:06:15.516Z,1003.2
2019-02-20T01:09:14.948Z,1003.2
2019-02-20T01:12:15.429Z,1003.3
2019-02-20T01:15:14.986Z,1003.3
2019-02-20T01:18:15.743Z,1003.3
2019-02-20T01:21:15.088Z,1003.3
2019-02-20T01:24:15.620Z,1003.3
2019-02-20T01:27:14.987Z,1003.2
2019-02-20T01:30:15.628Z,1003.3
2019-02-20T01:33:16.599Z,1003.3
2019-02-20T01:36:15.434Z,1003.3
2019-02-20T01:39:14.966Z,1003.3
2019-02-20T01:42:15.320Z,1003.4
2019-02-20T01:45:15.768Z,1003.3
2019-02-20T01:48:15.359Z,1003.3
2019-02-20T01:51:15.713Z,1003.3
2019-02-20T01:54:15.051Z,1003.3
2019-02-20T01:57:15.611Z,1003.3
2019-02-20T02:00:15.127Z,1003.2
2019-02-20T02:03:15.714Z,1003.3
2019-02-20T02:06:15.190Z,1003.3
2019-02-20T02:09:14.924Z,1003.2
2019-02-20T02:12:15.480Z,1003.2
2019-02-20T02:15:20.535Z,1003.2
2019-02-20T02:18:15.433Z,1003.2
2019-02-20T02:21:14.890Z,1003.2
2019-02-20T02:24:15.521Z,1003.2
2019-02-20T02:27:15.226Z,1003.1
2019-02-20T02:30:15.654Z,1003.1
2019-02-20T02:33:15.897Z,1003.1
2019-02-20T02:36:15.511Z,1003.0
2019-02-20T02:39:15.813Z,1003.0
2019-02-20T02:42:15.322Z,1003.0
2019-02-20T02:45:15.861Z,1003.0
2019-02-20T02:48:15.315Z,1003.0
2019-02-20T02:51:15.998Z,1002.9
2019-02-20T02:54:15.506Z,1002.9
2019-02-20T02:57:14.967Z,1002.9
2019-02-20T03:00:15.475Z,1002.9
2019-02-20T03:03:15.198Z,1002.9
2019-02-20T03:06:15.672Z,1003.0
2019-02-20T03:09:15.331Z,1003.0
2019-02-20T03:12:15.059Z,1003.0
2019-02-20T03:15:15.652Z,1003.0
2019-02-20T03:18:15.224Z,1003.0
2019-02-20T03:21:15.805Z,1003.0
2019-02-20T03:24:15.346Z,1003.1
2019-02-20T03:27:15.895Z,1003.0
2019-02-20T03:30:15.502Z,1003.1
2019-02-20T03:33:15.410Z,1003.1
2019-02-20T03:36:15.031Z,1003.1
2019-02-20T03:39:15.720Z,1003.1
2019-02-20T03:42:15.274Z,1003.1
2019-02-20T03:45:14.959Z,1003.1
2019-02-20T03:48:16.032Z,1003.2
2019-02-20T03:51:15.821Z,1003.2
2019-02-20T03:54:15.382Z,1003.2
2019-02-20T03:57:15.992Z,1003.3
2019-02-20T04:00:15.512Z,1003.3
2019-02-20T04:03:15.029Z,1003.4
2019-02-20T04:06:15.628Z,1003.4
2019-02-20T04:09:15.084Z,1003.4
2019-02-20T04:12:15.857Z,1003.4
2019-02-20T04:15:15.445Z,1003.4
2019-02-20T04:18:15.380Z,1003.4
2019-02-20T04:21:15.092Z,1003.4
2019-02-20T04:24:15.712Z,1003.4
2019-02-20T04:27:15.486Z,1003.4
2019-02-20T04:30:15.766Z,1003.5
2019-02-20T04:33:15.343Z,1003.5
2019-02-20T04:36:15.156Z,1003.5
2019-02-20T04:39:15.649Z,1003.5
2019-02-20T04:42:15.131Z,1003.5
2019-02-20T04:45:15.825Z,1003.5
2019-02-20T04:48:15.570Z,1003.5
2019-02-20T04:51:15.006Z,1003.4
2019-02-20T04:54:15.692Z,1003.5
2019-02-20T04:57:15.311Z,1003.4
2019-02-20T05:00:15.156Z,1003.5
2019-02-20T05:03:15.842Z,1003.4
2019-02-20T05:06:15.470Z,1003.5
2019-02-20T05:09:15.037Z,1003.5
2019-02-20T05:12:15.899Z,1003.5
2019-02-20T05:15:15.536Z,1003.6
2019-02-20T05:18:15.274Z,1003.5
2019-02-20T05:21:15.061Z,1003.5
2019-02-20T05:24:23.996Z,1003.5
2019-02-20T05:27:14.989Z,1003.5
2019-02-20T05:30:15.654Z,1003.6
2019-02-20T05:33:15.439Z,1003.6
2019-02-20T05:36:15.054Z,1003.6
2019-02-20T05:39:15.657Z,1003.6
2019-02-20T05:42:15.166Z,1003.6
2019-02-20T05:45:14.938Z,1003.6
2019-02-20T05:48:15.778Z,1003.5
2019-02-20T05:51:15.440Z,1003.5
2019-02-20T05:54:15.285Z,1003.5
2019-02-20T05:57:15.408Z,1003.5
2019-02-20T06:00:15.431Z,1003.5
2019-02-20T06:03:15.180Z,1003.6
2019-02-20T06:06:15.906Z,1003.6
2019-02-20T06:09:15.610Z,1003.6
2019-02-20T06:12:15.146Z,1003.7
2019-02-20T06:15:15.822Z,1003.7
2019-02-20T06:18:15.789Z,1003.7
2019-02-20T06:21:16.379Z,1003.7
2019-02-20T06:24:15.016Z,1003.7
2019-02-20T06:27:15.745Z,1003.7
2019-02-20T06:30:15.462Z,1003.7
2019-02-20T06:33:15.068Z,1003.7
2019-02-20T06:36:15.593Z,1003.8
2019-02-20T06:39:15.404Z,1003.9
2019-02-20T06:42:15.039Z,1004.0
2019-02-20T06:45:15.628Z,1004.1
2019-02-20T06:48:15.487Z,1004.1
2019-02-20T06:51:15.089Z,1004.1
2019-02-20T06:54:15.847Z,1004.1
2019-02-20T06:57:15.557Z,1004.1
2019-02-20T07:00:15.191Z,1004.1
2019-02-20T07:03:15.177Z,1004.1
2019-02-20T07:06:15.761Z,1004.2
2019-02-20T07:09:15.951Z,1004.2
2019-02-20T07:12:14.902Z,1004.2
2019-02-20T07:15:15.020Z,1004.3
2019-02-20T07:18:15.407Z,1004.3
2019-02-20T07:21:21.402Z,1004.3
2019-02-20T07:24:16.096Z,1004.4
2019-02-20T07:27:15.512Z,1004.4
2019-02-20T07:30:27.304Z,1004.4
2019-02-20T07:33:16.065Z,1004.4
2019-02-20T07:36:17.100Z,1004.5
2019-02-20T07:39:24.242Z,1004.4
2019-02-20T07:42:15.509Z,1004.5
2019-02-20T07:45:16.284Z,1004.5
2019-02-20T07:48:15.945Z,1004.6
2019-02-20T07:51:16.277Z,1004.7
2019-02-20T07:54:27.152Z,1004.7
2019-02-20T07:57:17.151Z,1004.7
2019-02-20T08:00:15.212Z,1004.6
2019-02-20T08:03:15.636Z,1004.7
2019-02-20T08:06:15.986Z,1004.6
2019-02-20T08:09:15.307Z,1004.7
2019-02-20T08:12:15.245Z,1004.7
2019-02-20T08:15:16.068Z,1004.8
2019-02-20T08:18:15.274Z,1004.7
2019-02-20T08:21:15.260Z,1004.7
2019-02-20T08:24:16.027Z,1004.8
2019-02-20T08:27:15.923Z,1004.9
2019-02-20T08:30:15.155Z,1004.9
2019-02-20T08:33:15.773Z,1004.9
2019-02-20T08:36:15.354Z,1004.9
2019-02-20T08:39:14.990Z,1004.9
2019-02-20T08:42:15.714Z,1005.0
2019-02-20T08:45:15.895Z,1005.0
2019-02-20T08:48:15.730Z,1005.0
2019-02-20T08:51:15.636Z,1005.0
2019-02-20T08:54:15.677Z,1004.9
2019-02-20T08:57:15.376Z,1005.0
2019-02-20T09:00:15.344Z,1004.9
2019-02-20T09:03:15.014Z,1004.9
2019-02-20T09:06:15.590Z,1004.9
2019-02-20T09:09:15.512Z,1004.9
2019-02-20T09:12:15.149Z,1005.0
2019-02-20T09:15:15.696Z,1005.0
2019-02-20T09:18:15.445Z,1005.0
2019-02-20T09:21:15.174Z,1005.0
2019-02-20T09:24:15.871Z,1005.0
2019-02-20T09:27:15.524Z,1005.0
2019-02-20T09:30:15.203Z,1005.1
2019-02-20T09:33:15.156Z,1005.1
2019-02-20T09:36:15.824Z,1005.2
2019-02-20T09:39:15.821Z,1005.2
2019-02-20T09:42:15.605Z,1005.2
2019-02-20T09:45:15.179Z,1005.2
2019-02-20T09:48:15.781Z,1005.2
2019-02-20T09:51:15.523Z,1005.2
2019-02-20T09:54:15.188Z,1005.3
2019-02-20T09:57:15.471Z,1005.2
2019-02-20T10:00:15.152Z,1005.3
2019-02-20T10:03:15.252Z,1005.3
2019-02-20T10:06:15.238Z,1005.3
2019-02-20T10:09:16.361Z,1005.3
2019-02-20T10:12:15.446Z,1005.3
2019-02-20T10:15:15.084Z,1005.3
2019-02-20T10:18:15.260Z,1005.3
2019-02-20T10:21:15.002Z,1005.4
2019-02-20T10:24:15.636Z,1005.4
2019-02-20T10:27:15.558Z,1005.4
2019-02-20T10:30:15.380Z,1005.4
2019-02-20T10:33:15.182Z,1005.5
2019-02-20T10:36:15.881Z,1005.5
2019-02-20T10:39:15.488Z,1005.5
2019-02-20T10:42:17.357Z,1005.4
2019-02-20T10:45:15.199Z,1005.4
2019-02-20T10:48:14.999Z,1005.4
2019-02-20T10:51:15.713Z,1005.5
2019-02-20T10:54:15.310Z,1005.5
2019-02-20T10:57:15.057Z,1005.4
2019-02-20T11:00:23.499Z,1005.4
2019-02-20T11:03:15.473Z,1005.4
2019-02-20T11:06:15.134Z,1005.4
2019-02-20T11:09:15.720Z,1005.4
2019-02-20T11:12:15.338Z,1005.5
2019-02-20T11:15:15.131Z,1005.5
2019-02-20T11:18:15.799Z,1005.5
2019-02-20T11:21:15.364Z,1005.4
2019-02-20T11:24:15.036Z,1005.4
2019-02-20T11:27:15.204Z,1005.4
2019-02-20T11:30:14.998Z,1005.4
2019-02-20T11:33:15.167Z,1005.4
2019-02-20T11:36:15.875Z,1005.4
2019-02-20T11:39:15.374Z,1005.3
2019-02-20T11:42:15.397Z,1005.3
2019-02-20T11:45:15.199Z,1005.2
2019-02-20T11:48:14.942Z,1005.3
2019-02-20T11:51:15.630Z,1005.2
2019-02-20T11:54:15.623Z,1005.2
2019-02-20T11:57:15.044Z,1005.2
2019-02-20T12:00:15.856Z,1005.3
2019-02-20T12:03:15.637Z,1005.3
2019-02-20T12:06:15.567Z,1005.2
2019-02-20T12:09:15.070Z,1005.2
2019-02-20T12:12:16.018Z,1005.1
2019-02-20T12:15:15.629Z,1005.1
2019-02-20T12:18:17.540Z,1005.1
2019-02-20T12:21:15.543Z,1005.1
2019-02-20T12:24:15.276Z,1005.1
2019-02-20T12:27:15.880Z,1005.1
2019-02-20T12:30:15.420Z,1005.1
2019-02-20T12:33:15.090Z,1005.0
2019-02-20T12:36:15.835Z,1005.0
2019-02-20T12:39:15.387Z,1005.1
2019-02-20T12:42:15.075Z,1005.1
2019-02-20T12:45:14.996Z,1005.1
2019-02-20T12:48:15.940Z,1005.1
2019-02-20T12:51:15.841Z,1005.1
2019-02-20T12:54:15.631Z,1005.1
2019-02-20T12:57:15.565Z,1005.0
2019-02-20T13:00:15.631Z,1005.1
2019-02-20T13:03:15.788Z,1005.0
2019-02-20T13:06:15.613Z,1005.0
2019-02-20T13:09:15.540Z,1005.0
2019-02-20T13:12:15.318Z,1005.0
2019-02-20T13:15:15.068Z,1005.0
2019-02-20T13:18:15.073Z,1004.9
2019-02-20T13:21:15.887Z,1004.9
2019-02-20T13:24:15.531Z,1004.9
2019-02-20T13:27:22.582Z,1004.9
2019-02-20T13:30:15.487Z,1004.8
2019-02-20T13:33:15.304Z,1004.8
2019-02-20T13:36:15.924Z,1004.8
2019-02-20T13:39:15.422Z,1004.9
2019-02-20T13:42:15.047Z,1004.9
2019-02-20T13:45:15.655Z,1004.9
2019-02-20T13:48:15.260Z,1004.8
2019-02-20T13:51:17.695Z,1004.8
2019-02-20T13:54:15.618Z,1004.8
2019-02-20T13:57:15.161Z,1004.8
2019-02-20T14:00:15.886Z,1004.8
2019-02-20T14:03:15.872Z,1004.7
2019-02-20T14:06:15.578Z,1004.7
2019-02-20T14:09:15.293Z,1004.7
2019-02-20T14:12:15.436Z,1004.7
2019-02-20T14:15:17.330Z,1004.7
2019-02-20T14:18:15.611Z,1004.7
2019-02-20T14:21:15.222Z,1004.7
2019-02-20T14:24:15.434Z,1004.7
2019-02-20T14:27:15.397Z,1004.7
2019-02-20T14:30:15.781Z,1004.7
2019-02-20T14:33:16.118Z,1004.7
2019-02-20T14:36:15.819Z,1004.8
2019-02-20T14:39:15.585Z,1004.7
2019-02-20T14:42:15.211Z,1004.7
2019-02-20T14:45:15.127Z,1004.7
2019-02-20T14:48:15.174Z,1004.7
2019-02-20T14:51:15.808Z,1004.7
2019-02-20T14:54:15.044Z,1004.7
2019-02-20T14:57:19.550Z,1004.7
2019-02-20T15:00:15.531Z,1004.6
2019-02-20T15:03:15.225Z,1004.6
2019-02-20T15:06:15.234Z,1004.6
2019-02-20T15:09:15.325Z,1004.5
2019-02-20T15:12:15.288Z,1004.5
2019-02-20T15:15:15.027Z,1004.5
2019-02-20T15:18:15.547Z,1004.5
2019-02-20T15:21:15.146Z,1004.5
2019-02-20T15:24:15.374Z,1004.5
2019-02-20T15:27:28.522Z,1004.5
2019-02-20T15:30:15.761Z,1004.5
2019-02-20T15:33:15.146Z,1004.5
2019-02-20T15:36:14.996Z,1004.6
2019-02-20T15:39:15.064Z,1004.5
2019-02-20T15:42:15.883Z,1004.6
2019-02-20T15:45:16.111Z,1004.5
2019-02-20T15:48:23.093Z,1004.5
2019-02-20T15:51:15.727Z,1004.5
2019-02-20T15:54:15.680Z,1004.5
2019-02-20T15:57:15.667Z,1004.5
2019-02-20T16:00:16.087Z,1004.6
2019-02-20T16:03:15.786Z,1004.5
2019-02-20T16:06:15.448Z,1004.5
2019-02-20T16:09:15.546Z,1004.6
2019-02-20T16:12:15.691Z,1004.6
2019-02-20T16:15:15.708Z,1004.6
2019-02-20T16:18:15.896Z,1004.5
2019-02-20T16:21:15.561Z,1004.6
2019-02-20T16:24:15.439Z,1004.6
2019-02-20T16:27:15.231Z,1004.6
2019-02-20T16:30:20.193Z,1004.6
2019-02-20T16:33:15.047Z,1004.6
2019-02-20T16:36:15.874Z,1004.5
2019-02-20T16:39:15.778Z,1004.5
2019-02-20T16:42:15.344Z,1004.6
2019-02-20T16:45:15.044Z,1004.6
2019-02-20T16:48:15.108Z,1004.6
2019-02-20T16:51:15.889Z,1004.7
2019-02-20T16:54:15.789Z,1004.7
2019-02-20T16:57:15.540Z,1004.7
2019-02-20T17:00:15.638Z,1004.7
2019-02-20T17:03:15.453Z,1004.8
2019-02-20T17:06:15.160Z,1004.8
2019-02-20T17:09:15.781Z,1004.9
2019-02-20T17:12:15.550Z,1004.9
2019-02-20T17:15:14.879Z,1004.9
2019-02-20T17:18:15.799Z,1005.0
2019-02-20T17:21:15.378Z,1005.0
2019-02-20T17:24:15.376Z,1005.0
2019-02-20T17:27:15.773Z,1005.0
2019-02-20T17:30:15.500Z,1005.1
2019-02-20T17:33:15.473Z,1005.1
2019-02-20T17:36:15.385Z,1005.2
2019-02-20T17:39:15.164Z,1005.2
2019-02-20T17:42:15.550Z,1005.2
2019-02-20T17:45:15.364Z,1005.3
2019-02-20T17:48:15.596Z,1005.3
2019-02-20T17:51:15.107Z,1005.3
2019-02-20T17:54:17.167Z,1005.4
2019-02-20T17:57:15.472Z,1005.4
2019-02-20T18:00:15.401Z,1005.4
2019-02-20T18:03:15.531Z,1005.3
2019-02-20T18:06:15.023Z,1005.3
2019-02-20T18:09:15.453Z,1005.4
2019-02-20T18:12:15.056Z,1005.4
2019-02-20T18:15:15.993Z,1005.4
2019-02-20T18:18:15.688Z,1005.5
2019-02-20T18:21:15.522Z,1005.4
2019-02-20T18:24:15.225Z,1005.4
2019-02-20T18:27:15.083Z,1005.5
2019-02-20T18:30:15.812Z,1005.5
2019-02-20T18:33:15.198Z,1005.4
2019-02-20T18:36:16.006Z,1005.4
2019-02-20T18:39:15.750Z,1005.4
2019-02-20T18:42:15.324Z,1005.5
2019-02-20T18:45:15.078Z,1005.5
2019-02-20T18:48:15.813Z,1005.5
2019-02-20T18:51:15.266Z,1005.6
2019-02-20T18:54:15.938Z,1005.6
2019-02-20T18:57:15.593Z,1005.6
2019-02-20T19:00:15.586Z,1005.6
2019-02-20T19:03:15.371Z,1005.6
2019-02-20T19:06:15.116Z,1005.5
2019-02-20T19:09:15.746Z,1005.6
2019-02-20T19:12:15.673Z,1005.6
2019-02-20T19:15:15.012Z,1005.7
2019-02-20T19:18:15.453Z,1005.7
2019-02-20T19:21:15.023Z,1005.7
2019-02-20T19:24:15.811Z,1005.7
2019-02-20T19:27:15.760Z,1005.7
2019-02-20T19:30:15.396Z,1005.8
2019-02-20T19:33:15.829Z,1005.7
2019-02-20T19:36:15.935Z,1005.8
2019-02-20T19:39:15.307Z,1005.8
2019-02-20T19:42:15.284Z,1005.8
2019-02-20T19:45:15.695Z,1005.9
2019-02-20T19:48:15.344Z,1005.9
2019-02-20T19:51:15.238Z,1005.9
2019-02-20T19:54:15.163Z,1005.9
2019-02-20T19:57:15.147Z,1006.0
2019-02-20T20:00:15.336Z,1006.0
2019-02-20T20:03:14.947Z,1005.9
2019-02-20T20:06:15.384Z,1006.0
2019-02-20T20:09:15.270Z,1006.0
2019-02-20T20:12:15.877Z,1006.1
2019-02-20T20:15:15.943Z,1006.0
2019-02-20T20:18:15.890Z,1006.1
2019-02-20T20:21:15.677Z,1006.1
2019-02-20T20:24:15.595Z,1006.1
2019-02-20T20:27:15.094Z,1006.1
2019-02-20T20:30:15.812Z,1006.1
2019-02-20T20:33:15.854Z,1006.1
2019-02-20T20:36:15.506Z,1006.1
2019-02-20T20:39:15.091Z,1006.1
2019-02-20T20:42:15.828Z,1006.0
2019-02-20T20:45:15.156Z,1006.1
2019-02-20T20:48:15.318Z,1006.1
2019-02-20T20:51:15.690Z,1006.2
2019-02-20T20:54:15.056Z,1006.1
2019-02-20T20:57:15.794Z,1006.2
2019-02-20T21:00:15.918Z,1006.2
2019-02-20T21:03:15.346Z,1006.2
2019-02-20T21:06:15.148Z,1006.1
2019-02-20T21:09:15.717Z,1006.1
2019-02-20T21:12:15.038Z,1006.1
2019-02-20T21:15:15.574Z,1006.2
2019-02-20T21:18:15.105Z,1006.1
2019-02-20T21:21:15.418Z,1006.1
2019-02-20T21:24:14.965Z,1006.1
2019-02-20T21:27:15.035Z,1006.0
2019-02-20T21:30:15.886Z,1006.1
2019-02-20T21:33:15.590Z,1006.1
2019-02-20T21:36:15.593Z,1006.1
2019-02-20T21:39:15.518Z,1006.1
2019-02-20T21:42:15.987Z,1006.1
2019-02-20T21:45:15.929Z,1006.2
2019-02-20T21:48:15.676Z,1006.2
2019-02-20T21:51:15.872Z,1006.2
2019-02-20T21:54:15.599Z,1006.2
2019-02-20T21:57:15.024Z,1006.2
2019-02-20T22:00:15.363Z,1006.3
2019-02-20T22:03:15.838Z,1006.3
2019-02-20T22:06:15.991Z,1006.3
2019-02-20T22:09:15.051Z,1006.3
2019-02-20T22:12:15.702Z,1006.3
2019-02-20T22:15:15.622Z,1006.3
2019-02-20T22:18:15.103Z,1006.3
2019-02-20T22:21:15.299Z,1006.3
2019-02-20T22:24:15.949Z,1006.3
2019-02-20T22:27:15.426Z,1006.3
2019-02-20T22:30:15.356Z,1006.4
2019-02-20T22:33:15.476Z,1006.4
2019-02-20T22:36:15.048Z,1006.4
2019-02-20T22:39:15.862Z,1006.4
2019-02-20T22:42:15.365Z,1006.5
2019-02-20T22:45:14.954Z,1006.5
2019-02-20T22:48:15.235Z,1006.5
2019-02-20T22:51:15.205Z,1006.5
2019-02-20T22:54:15.467Z,1006.4
2019-02-20T22:57:15.501Z,1006.5
2019-02-20T23:00:15.713Z,1006.5
2019-02-20T23:03:15.407Z,1006.5
2019-02-20T23:06:15.404Z,1006.5
2019-02-20T23:09:15.154Z,1006.6
2019-02-20T23:12:15.754Z,1006.6
2019-02-20T23:15:15.315Z,1006.7
2019-02-20T23:18:16.067Z,1006.7
2019-02-20T23:21:16.123Z,1006.7
2019-02-20T23:24:15.581Z,1006.8
2019-02-20T23:27:15.122Z,1006.8
2019-02-20T23:30:15.417Z,1006.9
2019-02-20T23:33:15.409Z,1006.9
2019-02-20T23:36:15.041Z,1006.9
2019-02-20T23:39:14.971Z,1006.8
2019-02-20T23:42:15.510Z,1006.8
2019-02-20T23:45:15.192Z,1006.8
2019-02-20T23:48:15.769Z,1006.8
2019-02-20T23:51:15.123Z,1006.8
2019-02-20T23:54:15.796Z,1006.9
2019-02-20T23:57:15.385Z,1006.9
